Time;durP1;ratioP1;P1;durP2;ratioP2;P2;SDS_P1;SDS_P2;PMS_P1;PMS_P2;Temp;Humidity;BMP_temperature;BMP_pressure;BME280_temperature;BME280_humidity;BME280_pressure;Samples;Min_cycle;Max_cycle;Signal;HPM_P1;HPM_P2
2022/04/26 03:36:14;;;;;;;1.95;0.80;;;20.80;99.90;;;;;;5057788;28;20476;-76
2022/04/26 03:38:47;;;;;;;2.17;0.85;;;20.80;99.90;;;;;;5058284;28;20305;-76
2022/04/26 03:41:18;;;;;;;1.65;0.60;;;20.80;99.90;;;;;;5062100;28;20210;-75
2022/04/26 03:43:49;;;;;;;3.05;0.57;;;20.80;99.90;;;;;;5059479;28;20218;-76
2022/04/26 03:46:19;;;;;;;1.10;0.60;;;20.80;99.90;;;;;;5059600;28;20574;-75
2022/04/26 03:48:50;;;;;;;0.80;0.60;;;20.80;99.90;;;;;;5058452;28;20191;-75
2022/04/26 03:51:23;;;;;;;4.03;0.68;;;20.80;99.90;;;;;;5061323;28;20586;-76
2022/04/26 03:53:54;;;;;;;2.30;0.60;;;20.70;99.90;;;;;;5069742;28;20223;-77
2022/04/26 03:56:24;;;;;;;1.27;0.73;;;20.80;99.90;;;;;;5078331;28;20233;-76
2022/04/26 03:58:55;;;;;;;2.00;0.68;;;20.80;99.90;;;;;;5071854;28;20281;-76
2022/04/26 04:01:25;;;;;;;1.63;0.68;;;20.80;99.90;;;;;;5070297;28;20196;-75
2022/04/26 04:03:56;;;;;;;0.95;0.70;;;20.90;99.90;;;;;;5073559;28;20930;-75
2022/04/26 04:06:29;;;;;;;1.00;0.40;;;20.90;99.90;;;;;;5069833;28;20302;-76
2022/04/26 04:08:59;;;;;;;0.90;0.50;;;20.90;99.90;;;;;;5085654;28;20215;-75
2022/04/26 04:11:30;;;;;;;1.58;0.80;;;21.00;99.90;;;;;;5087691;28;20195;-75
2022/04/26 04:14:01;;;;;;;1.77;0.70;;;21.00;99.90;;;;;;5074120;28;20196;-76
2022/04/26 04:16:32;;;;;;;0.80;0.50;;;21.00;99.90;;;;;;5087808;28;20286;-76
2022/04/26 04:19:21;;;;;;;0.93;0.60;;;21.00;99.90;;;;;;5089803;28;20222;-77
2022/04/26 04:21:54;;;;;;;1.73;0.73;;;21.00;99.90;;;;;;5088861;28;20257;-75
2022/04/26 04:24:24;;;;;;;1.35;0.60;;;21.00;99.90;;;;;;5090923;28;20202;-75
2022/04/26 04:26:55;;;;;;;1.08;0.60;;;21.00;99.90;;;;;;5088234;28;20295;-76
2022/04/26 04:29:26;;;;;;;2.38;0.50;;;21.00;99.90;;;;;;5086491;28;20260;-76
2022/04/26 04:31:56;;;;;;;2.75;0.73;;;21.00;99.90;;;;;;5078065;28;20195;-76
2022/04/26 04:34:27;;;;;;;0.95;0.60;;;21.00;99.90;;;;;;5069843;28;20294;-76
2022/04/26 04:37:00;;;;;;;2.03;0.70;;;21.00;99.90;;;;;;5073592;28;20188;-76
2022/04/26 04:39:31;;;;;;;0.45;0.40;;;21.00;99.90;;;;;;5080145;28;20226;-76
2022/04/26 04:42:01;;;;;;;2.67;0.50;;;20.90;99.90;;;;;;5072258;28;20215;-76
2022/04/26 04:44:32;;;;;;;0.60;0.50;;;21.00;99.90;;;;;;5093012;28;20192;-76
2022/04/26 04:47:03;;;;;;;0.57;0.40;;;20.90;99.90;;;;;;5080793;28;20248;-77
2022/04/26 04:49:34;;;;;;;1.52;0.50;;;21.00;99.90;;;;;;5084527;28;20563;-77
2022/04/26 04:52:06;;;;;;;1.27;0.50;;;21.00;99.90;;;;;;5091016;28;20199;-77
2022/04/26 04:54:37;;;;;;;0.98;0.50;;;21.00;99.90;;;;;;5090006;28;20200;-77
2022/04/26 04:57:08;;;;;;;2.05;0.70;;;21.00;99.90;;;;;;5070817;28;20297;-76
2022/04/26 04:59:39;;;;;;;0.85;0.52;;;21.00;99.90;;;;;;5070190;28;20293;-76
2022/04/26 05:02:09;;;;;;;1.45;0.60;;;21.00;99.90;;;;;;5070238;28;20717;-77
2022/04/26 05:04:42;;;;;;;0.95;0.40;;;21.10;99.90;;;;;;5076917;28;20192;-77
2022/04/26 05:07:15;;;;;;;1.05;0.47;;;21.00;99.90;;;;;;5086376;28;20199;-76
2022/04/26 05:09:45;;;;;;;1.30;0.60;;;21.00;99.90;;;;;;5092794;28;20198;-76
2022/04/26 05:12:16;;;;;;;0.75;0.57;;;21.10;99.90;;;;;;5094715;28;20195;-76
2022/04/26 05:14:47;;;;;;;0.93;0.57;;;21.10;99.90;;;;;;5094385;28;20203;-77
2022/04/26 05:17:18;;;;;;;1.70;0.68;;;21.10;99.90;;;;;;5093433;28;20680;-77
2022/04/26 05:19:49;;;;;;;2.05;0.60;;;21.10;99.90;;;;;;5074120;28;20232;-77
2022/04/26 05:22:21;;;;;;;1.20;0.60;;;21.10;99.90;;;;;;5074790;28;20269;-76
2022/04/26 05:24:57;;;;;;;2.92;0.80;;;21.00;99.90;;;;;;5074526;28;20199;-76
2022/04/26 05:27:28;;;;;;;1.48;0.60;;;21.00;99.90;;;;;;5077632;28;20214;-76
2022/04/26 05:30:00;;;;;;;2.35;0.80;;;21.00;99.90;;;;;;5073851;28;20273;-77
2022/04/26 05:32:31;;;;;;;2.05;0.80;;;21.00;99.90;;;;;;5086921;28;20195;-76
2022/04/26 05:35:03;;;;;;;2.45;0.80;;;21.00;99.90;;;;;;5093848;28;20248;-76
2022/04/26 05:37:35;;;;;;;1.45;0.90;;;21.00;99.90;;;;;;5081389;28;20618;-76
2022/04/26 05:40:06;;;;;;;1.40;0.77;;;20.90;99.90;;;;;;5083898;28;20778;-76
2022/04/26 05:42:40;;;;;;;2.03;0.80;;;20.90;99.90;;;;;;5093886;28;20203;-76
2022/04/26 05:45:11;;;;;;;1.95;0.75;;;20.90;99.90;;;;;;5091386;28;20195;-77
2022/04/26 05:47:45;;;;;;;1.98;0.88;;;20.90;99.90;;;;;;5093553;28;20666;-76
2022/04/26 05:50:16;;;;;;;1.48;0.80;;;20.90;99.90;;;;;;5093777;28;20252;-76
2022/04/26 05:52:48;;;;;;;2.45;0.90;;;20.90;99.90;;;;;;5093562;28;20256;-77
2022/04/26 05:55:19;;;;;;;4.03;1.10;;;20.90;99.90;;;;;;5093850;28;20290;-77
2022/04/26 05:57:50;;;;;;;1.40;0.70;;;20.90;99.90;;;;;;5076197;28;20228;-76
2022/04/26 06:00:21;;;;;;;3.00;0.93;;;20.90;99.90;;;;;;5073598;28;20280;-76
2022/04/26 06:02:51;;;;;;;3.55;1.02;;;20.90;99.90;;;;;;5076778;28;20562;-76
2022/04/26 06:05:22;;;;;;;3.33;0.93;;;20.80;99.90;;;;;;5082064;28;20260;-76
2022/04/26 06:07:55;;;;;;;7.38;3.13;;;20.80;99.90;;;;;;5093770;28;20199;-77
2022/04/26 06:10:25;;;;;;;7.40;2.95;;;20.80;99.90;;;;;;5093275;28;20735;-77
2022/04/26 06:12:56;;;;;;;3.05;1.73;;;20.80;99.90;;;;;;5092055;28;20203;-77
2022/04/26 06:15:26;;;;;;;2.17;0.88;;;20.70;99.90;;;;;;5078303;28;20219;-77
2022/04/26 06:17:57;;;;;;;2.50;1.10;;;20.70;99.90;;;;;;5074576;28;20246;-77
2022/04/26 06:20:29;;;;;;;0.93;0.70;;;20.70;99.90;;;;;;5080731;28;20281;-78
2022/04/26 06:23:02;;;;;;;2.28;0.90;;;20.70;99.90;;;;;;5072536;28;20286;-77
2022/04/26 06:25:36;;;;;;;3.00;0.93;;;20.70;99.90;;;;;;5072444;28;20250;-76
2022/04/26 06:28:10;;;;;;;2.58;1.00;;;20.70;99.90;;;;;;5072714;28;20223;-77
2022/04/26 06:30:41;;;;;;;4.57;1.10;;;20.60;99.90;;;;;;5073514;28;20777;-77
2022/04/26 06:33:14;;;;;;;3.03;0.95;;;20.60;99.90;;;;;;5091849;28;20203;-77
2022/04/26 06:35:45;;;;;;;1.23;0.80;;;20.60;99.90;;;;;;5092701;28;20598;-77
2022/04/26 06:38:18;;;;;;;3.53;1.10;;;20.50;99.90;;;;;;5086253;28;20192;-77
2022/04/26 06:40:49;;;;;;;3.10;0.90;;;20.60;99.90;;;;;;5072333;28;20653;-77
2022/04/26 06:43:19;;;;;;;2.40;0.80;;;20.60;99.90;;;;;;5072021;28;20192;-76
2022/04/26 06:45:50;;;;;;;1.95;0.90;;;20.50;99.90;;;;;;5081680;28;20692;-76
2022/04/26 06:48:20;;;;;;;2.92;1.02;;;20.50;99.90;;;;;;5080961;28;20570;-77
2022/04/26 06:50:51;;;;;;;2.97;1.10;;;20.50;99.90;;;;;;5072046;28;20203;-77
2022/04/26 06:53:24;;;;;;;2.47;1.05;;;20.50;99.90;;;;;;5086850;28;20203;-77
2022/04/26 06:55:54;;;;;;;2.22;0.90;;;20.40;99.90;;;;;;5090499;28;20197;-77
2022/04/26 06:58:25;;;;;;;1.88;0.90;;;20.40;99.90;;;;;;5092355;28;20195;-77
2022/04/26 07:00:56;;;;;;;1.70;0.85;;;20.40;99.90;;;;;;5090944;28;20199;-77
2022/04/26 07:03:26;;;;;;;4.05;1.05;;;20.40;99.90;;;;;;5062572;28;20628;-77
2022/04/26 07:05:57;;;;;;;1.52;1.00;;;20.40;99.90;;;;;;5058104;28;20196;-77
2022/04/26 07:08:29;;;;;;;3.45;0.80;;;20.40;99.90;;;;;;5058574;28;20324;-76
2022/04/26 07:11:00;;;;;;;3.45;1.15;;;20.30;99.90;;;;;;5065140;28;20231;-75
2022/04/26 07:13:31;;;;;;;3.38;1.25;;;20.30;99.90;;;;;;5058744;28;20200;-75
2022/04/26 07:16:02;;;;;;;3.72;1.38;;;20.30;99.90;;;;;;5059053;28;20865;-79
2022/04/26 07:18:32;;;;;;;3.10;1.17;;;20.30;99.90;;;;;;5061879;28;20694;-79
2022/04/26 07:21:03;;;;;;;3.38;1.02;;;20.20;99.90;;;;;;5062957;28;20732;-79
2022/04/26 07:23:36;;;;;;;1.92;1.10;;;20.20;99.90;;;;;;5058932;28;20200;-79
2022/04/26 07:26:07;;;;;;;1.98;1.13;;;20.20;99.90;;;;;;5061932;28;20215;-79
2022/04/26 07:28:37;;;;;;;3.30;1.00;;;20.20;99.90;;;;;;5060244;28;20204;-76
2022/04/26 07:31:08;;;;;;;2.08;1.10;;;20.20;99.90;;;;;;5058505;28;20788;-74
2022/04/26 07:36:26;;;;;;;2.88;1.00;;;20.20;99.90;;;;;;5059161;28;20248;-75
2022/04/26 07:38:58;;;;;;;4.80;1.13;;;20.20;99.90;;;;;;5057721;28;20227;-76
2022/04/26 07:41:29;;;;;;;2.75;1.10;;;20.20;99.90;;;;;;5058698;28;20204;-75
2022/04/26 07:43:59;;;;;;;2.65;1.00;;;20.20;99.90;;;;;;5060493;28;20199;-81
2022/04/26 07:46:30;;;;;;;1.30;0.98;;;20.20;99.90;;;;;;5058513;28;20203;-78
2022/04/26 07:49:01;;;;;;;2.60;0.85;;;20.20;99.90;;;;;;5069514;28;20719;-78
2022/04/26 07:51:32;;;;;;;2.95;1.10;;;20.10;99.90;;;;;;5077737;28;20399;-77
2022/04/26 07:54:05;;;;;;;3.80;1.30;;;20.10;99.90;;;;;;5073472;28;20544;-78
2022/04/26 07:56:36;;;;;;;2.70;1.17;;;20.20;99.90;;;;;;5078131;28;20277;-77
2022/04/26 07:59:07;;;;;;;4.00;1.42;;;20.20;99.90;;;;;;5077228;28;20283;-76
2022/04/26 08:01:38;;;;;;;1.65;1.13;;;20.10;99.90;;;;;;5087583;28;20655;-76
2022/04/26 08:04:09;;;;;;;4.75;1.50;;;20.10;99.90;;;;;;5088649;28;20199;-77
2022/04/26 08:06:40;;;;;;;3.05;1.45;;;20.10;99.90;;;;;;5088911;28;20199;-76
2022/04/26 08:09:12;;;;;;;4.65;1.33;;;20.10;99.90;;;;;;5089880;28;20264;-76
2022/04/26 08:11:43;;;;;;;2.05;1.30;;;20.10;99.90;;;;;;5087466;28;20199;-76
2022/04/26 08:14:14;;;;;;;1.67;1.00;;;20.10;99.90;;;;;;5075445;28;20244;-76
2022/04/26 08:16:45;;;;;;;2.78;1.00;;;20.10;99.90;;;;;;5085134;28;20199;-76
2022/04/26 08:19:15;;;;;;;3.72;0.95;;;20.00;99.90;;;;;;5077638;28;20228;-74
2022/04/26 08:21:46;;;;;;;2.08;0.80;;;20.00;99.90;;;;;;5069206;28;20223;-75
2022/04/26 08:29:51;;;;;;;2.47;0.70;;;19.90;99.90;;;;;;5070259;28;20195;-76
2022/04/26 08:32:23;;;;;;;2.55;0.70;;;19.90;99.90;;;;;;5086872;28;20287;-77
2022/04/26 08:34:54;;;;;;;2.92;0.68;;;19.90;99.90;;;;;;5083645;28;20244;-77
2022/04/26 08:37:24;;;;;;;1.95;0.75;;;19.80;99.90;;;;;;5079511;28;20650;-79
2022/04/26 08:39:57;;;;;;;3.50;0.80;;;19.80;99.90;;;;;;5081110;28;20231;-79
2022/04/26 08:42:38;;;;;;;4.25;0.90;;;19.70;99.90;;;;;;5081125;28;20293;-75
2022/04/26 08:45:12;;;;;;;1.48;0.50;;;19.70;99.90;;;;;;5088270;28;20195;-75
2022/04/26 08:53:19;;;;;;;1.85;0.60;;;19.60;99.90;;;;;;5068787;28;20564;-76
2022/04/26 08:55:53;;;;;;;2.97;0.80;;;19.60;99.90;;;;;;5084417;28;20223;-76
2022/04/26 08:58:25;;;;;;;2.42;0.90;;;19.60;99.90;;;;;;5032234;28;20207;-76
2022/04/26 09:01:16;;;;;;;4.85;1.00;;;19.50;99.90;;;;;;5039442;28;20373;-76
2022/04/26 09:04:01;;;;;;;2.38;0.80;;;19.60;99.90;;;;;;5039834;28;20304;-75
2022/04/26 09:06:43;;;;;;;2.25;0.80;;;19.60;99.90;;;;;;5033896;28;20197;-75
2022/04/26 09:09:16;;;;;;;3.70;1.50;;;19.50;99.90;;;;;;5039228;28;20220;-75
2022/04/26 09:11:49;;;;;;;3.95;1.77;;;19.50;99.90;;;;;;5048932;28;20212;-76
2022/04/26 09:14:35;;;;;;;2.67;1.10;;;19.60;99.90;;;;;;5037354;28;20200;-76
2022/04/26 09:17:10;;;;;;;1.90;0.98;;;19.50;99.90;;;;;;5048325;28;20197;-76
2022/04/26 09:19:49;;;;;;;1.50;0.77;;;19.50;99.90;;;;;;5048296;28;20277;-77
2022/04/26 09:22:21;;;;;;;1.00;0.65;;;19.60;99.90;;;;;;5029389;28;20216;-76
2022/04/26 09:25:02;;;;;;;1.38;0.60;;;19.60;99.90;;;;;;5030392;28;20528;-77
2022/04/26 09:27:39;;;;;;;0.60;0.60;;;19.60;99.90;;;;;;5029190;28;20216;-76
2022/04/26 09:30:13;;;;;;;0.77;0.57;;;19.60;99.90;;;;;;5028771;28;20232;-76
2022/04/26 09:32:51;;;;;;;1.02;0.60;;;19.60;99.90;;;;;;5028920;28;20216;-75
2022/04/26 09:35:23;;;;;;;1.88;0.60;;;19.50;99.90;;;;;;5028742;28;20568;-75
2022/04/26 09:37:54;;;;;;;1.67;0.50;;;19.60;99.90;;;;;;5037818;28;20200;-75
2022/04/26 09:40:31;;;;;;;0.82;0.60;;;19.60;99.90;;;;;;5039108;28;20233;-76
2022/04/26 09:43:04;;;;;;;2.28;0.70;;;19.60;99.90;;;;;;5028703;28;20635;-76
2022/04/26 09:45:34;;;;;;;1.73;0.60;;;19.60;99.90;;;;;;5028441;28;20208;-76
2022/04/26 09:48:05;;;;;;;2.13;0.60;;;19.60;99.90;;;;;;5028624;28;20615;-75
2022/04/26 09:50:36;;;;;;;0.80;0.52;;;19.60;99.90;;;;;;5030114;28;20205;-76
2022/04/26 09:53:07;;;;;;;1.45;0.47;;;19.60;99.90;;;;;;5031842;28;20240;-76
2022/04/26 09:55:38;;;;;;;0.70;0.50;;;19.50;99.90;;;;;;5046793;28;20223;-76
2022/04/26 09:58:12;;;;;;;2.38;0.50;;;19.50;99.90;;;;;;5088264;28;20227;-76
2022/04/26 10:00:47;;;;;;;2.35;0.70;;;19.50;99.90;;;;;;5091698;28;20655;-77
2022/04/26 10:03:22;;;;;;;2.38;0.50;;;19.50;99.90;;;;;;5071475;28;20218;-77
2022/04/26 10:05:58;;;;;;;1.20;0.60;;;19.60;99.90;;;;;;5078221;28;20611;-77
2022/04/26 10:08:32;;;;;;;0.60;0.57;;;19.60;99.90;;;;;;5091878;28;20248;-76
2022/04/26 10:11:03;;;;;;;1.58;0.60;;;19.60;99.90;;;;;;5093076;28;20234;-77
2022/04/26 10:13:39;;;;;;;1.83;0.80;;;19.60;99.90;;;;;;5072612;28;20212;-76
2022/04/26 10:16:11;;;;;;;1.65;1.00;;;19.60;99.90;;;;;;5071611;28;20208;-75
2022/04/26 10:18:44;;;;;;;2.58;1.00;;;19.60;99.90;;;;;;5071971;28;20200;-77
2022/04/26 10:21:38;;;;;;;1.85;0.80;;;19.60;99.90;;;;;;5086150;28;20314;-79
2022/04/26 10:24:27;;;;;;;1.25;0.60;;;19.60;99.90;;;;;;5071695;28;20752;-79
2022/04/26 10:27:23;;;;;;;1.63;0.70;;;19.60;99.90;;;;;;5071779;28;20216;-79
2022/04/26 10:29:55;;;;;;;2.72;0.90;;;19.60;99.90;;;;;;5072903;28;20253;-79
2022/04/26 10:32:34;;;;;;;0.85;0.63;;;19.60;99.90;;;;;;5071729;28;20192;-80
2022/04/26 10:35:32;;;;;;;1.73;0.70;;;19.60;99.90;;;;;;5071252;28;20635;-76
2022/04/26 10:38:16;;;;;;;1.77;0.60;;;19.60;99.90;;;;;;5071305;28;20235;-76
2022/04/26 10:41:13;;;;;;;1.55;0.60;;;19.60;99.90;;;;;;5091272;28;20238;-75
2022/04/26 10:44:28;;;;;;;2.10;0.70;;;19.50;99.90;;;;;;5091417;28;20199;-77
2022/04/26 10:47:27;;;;;;;1.10;0.45;;;19.50;99.90;;;;;;5071113;28;20234;-76
2022/04/26 10:50:02;;;;;;;1.65;0.38;;;19.50;99.90;;;;;;5087306;28;20200;-77
2022/04/26 10:52:47;;;;;;;0.82;0.40;;;19.50;99.90;;;;;;5091200;28;20276;-76
2022/04/26 10:55:27;;;;;;;1.75;0.57;;;19.50;99.90;;;;;;5090922;28;20662;-79
2022/04/26 10:57:58;;;;;;;2.53;0.60;;;19.50;99.90;;;;;;5070785;28;20228;-78
2022/04/26 11:00:40;;;;;;;1.27;0.60;;;19.50;99.90;;;;;;5071098;28;20223;-79
2022/04/26 11:03:13;;;;;;;2.13;0.70;;;19.50;99.90;;;;;;5079205;28;20218;-75
2022/04/26 11:05:44;;;;;;;1.52;0.60;;;19.50;99.90;;;;;;5071002;28;20202;-77
2022/04/26 11:08:14;;;;;;;1.38;0.60;;;19.50;99.90;;;;;;5070988;28;20246;-75
2022/04/26 11:11:07;;;;;;;1.70;0.70;;;19.50;99.90;;;;;;5078710;28;20585;-76
2022/04/26 11:13:38;;;;;;;2.35;0.90;;;19.50;99.90;;;;;;5088929;28;20277;-75
2022/04/26 11:16:12;;;;;;;2.28;0.80;;;19.50;99.90;;;;;;5073680;28;20187;-75
2022/04/26 11:18:45;;;;;;;1.05;0.65;;;19.50;99.90;;;;;;5090336;28;20253;-75
2022/04/26 11:21:19;;;;;;;1.17;0.80;;;19.50;99.90;;;;;;5082214;28;20235;-75
2022/04/26 11:29:51;;;;;;;1.38;0.82;;;19.40;99.90;;;;;;5032043;28;20319;-75
2022/04/26 11:32:32;;;;;;;1.77;0.80;;;19.40;99.90;;;;;;5070230;28;20191;-75
2022/04/26 11:35:05;;;;;;;2.28;0.98;;;19.40;99.90;;;;;;5070509;28;20235;-76
2022/04/26 11:37:46;;;;;;;1.90;0.80;;;19.40;99.90;;;;;;5070148;28;20231;-74
2022/04/26 11:40:25;;;;;;;1.63;0.70;;;19.40;99.90;;;;;;5069933;28;20506;-74
2022/04/26 11:42:57;;;;;;;1.27;0.73;;;19.30;99.90;;;;;;5070745;28;20223;-75
2022/04/26 11:45:32;;;;;;;1.05;0.80;;;19.30;99.90;;;;;;5070164;28;20200;-75
2022/04/26 11:48:03;;;;;;;3.53;2.15;;;19.30;99.90;;;;;;5070156;28;20200;-75
2022/04/26 11:50:38;;;;;;;2.53;1.55;;;19.30;99.90;;;;;;5069832;28;20203;-76
2022/04/26 11:53:13;;;;;;;1.45;0.75;;;19.30;99.90;;;;;;5069589;28;20256;-75
2022/04/26 11:55:45;;;;;;;1.73;0.70;;;19.30;99.90;;;;;;5070053;28;20552;-75
2022/04/26 11:58:18;;;;;;;1.00;0.63;;;19.30;99.90;;;;;;5069473;28;20334;-75
2022/04/26 12:01:03;;;;;;;1.30;0.80;;;19.30;99.90;;;;;;5070362;28;20234;-75
2022/04/26 12:03:38;;;;;;;1.00;0.70;;;19.30;99.90;;;;;;5088472;28;20188;-76
2022/04/26 12:06:12;;;;;;;1.60;0.73;;;19.40;99.90;;;;;;5089839;28;20202;-75
2022/04/26 12:08:47;;;;;;;2.03;0.88;;;19.40;99.90;;;;;;5069715;28;20632;-75
2022/04/26 12:11:21;;;;;;;2.53;0.80;;;19.40;99.90;;;;;;5076100;28;20545;-75
2022/04/26 12:14:11;;;;;;;1.52;0.75;;;19.30;99.90;;;;;;5068744;28;20257;-75
2022/04/26 12:16:45;;;;;;;2.35;0.82;;;19.30;99.90;;;;;;5069554;28;20196;-76
2022/04/26 12:19:16;;;;;;;2.15;0.80;;;19.30;99.90;;;;;;5069638;28;20199;-75
2022/04/26 12:21:54;;;;;;;1.63;0.88;;;19.30;99.90;;;;;;5069530;28;20266;-75
2022/04/26 12:24:27;;;;;;;1.75;0.90;;;19.30;99.90;;;;;;5069751;28;20207;-75
2022/04/26 12:27:01;;;;;;;1.80;0.80;;;19.30;99.90;;;;;;5071729;28;20287;-75
2022/04/26 12:29:33;;;;;;;1.58;0.80;;;19.20;99.90;;;;;;5075086;28;20566;-75
2022/04/26 12:32:09;;;;;;;1.17;0.80;;;19.20;99.90;;;;;;5068979;28;20196;-75
2022/04/26 12:34:48;;;;;;;2.30;1.00;;;19.10;99.90;;;;;;5069327;28;20272;-76
2022/04/26 12:37:29;;;;;;;2.50;1.00;;;19.10;99.90;;;;;;5069345;28;20780;-75
2022/04/26 12:40:09;;;;;;;2.25;0.85;;;19.10;99.90;;;;;;5069272;28;20227;-75
2022/04/26 12:42:42;;;;;;;3.58;0.75;;;19.20;99.90;;;;;;5069033;28;20647;-75
2022/04/26 12:45:21;;;;;;;2.15;1.00;;;19.10;99.90;;;;;;5070189;28;20199;-75
2022/04/26 12:50:54;;;;;;;2.60;0.80;;;19.20;99.90;;;;;;5069509;28;20724;-75
2022/04/26 12:53:32;;;;;;;1.58;0.70;;;19.20;99.90;;;;;;5068843;28;20269;-75
2022/04/26 12:56:10;;;;;;;1.50;0.90;;;19.20;99.90;;;;;;5081728;28;20376;-74
2022/04/26 12:58:43;;;;;;;2.15;0.82;;;19.20;99.90;;;;;;5068009;28;20234;-78
2022/04/26 13:01:15;;;;;;;2.05;0.70;;;19.20;99.90;;;;;;5083715;28;20272;-75
2022/04/26 13:03:48;;;;;;;3.65;0.80;;;19.20;99.90;;;;;;5068828;28;20238;-75
2022/04/26 13:06:20;;;;;;;1.75;0.80;;;19.20;99.90;;;;;;5068421;28;20203;-75
2022/04/26 13:08:53;;;;;;;1.55;0.70;;;19.20;99.90;;;;;;5068307;28;20200;-75
2022/04/26 13:11:24;;;;;;;2.92;1.13;;;19.20;99.90;;;;;;5085112;28;20639;-75
2022/04/26 13:13:55;;;;;;;2.50;0.63;;;19.20;99.90;;;;;;5096656;28;20291;-75
2022/04/26 13:16:26;;;;;;;2.97;0.80;;;19.20;99.90;;;;;;5068833;28;20245;-75
2022/04/26 13:18:56;;;;;;;2.17;0.70;;;19.20;99.90;;;;;;5078824;28;20199;-76
2022/04/26 13:21:28;;;;;;;1.60;0.52;;;19.20;99.90;;;;;;5089203;28;20230;-75
2022/04/26 13:24:02;;;;;;;1.95;0.77;;;19.20;99.90;;;;;;5081789;28;20191;-75
2022/04/26 13:26:35;;;;;;;1.10;0.70;;;19.20;99.90;;;;;;5085417;28;20225;-75
2022/04/26 13:29:05;;;;;;;1.85;0.73;;;19.20;99.90;;;;;;5092741;28;20290;-75
2022/04/26 13:31:36;;;;;;;1.98;0.90;;;19.20;99.90;;;;;;5078580;28;20200;-75
2022/04/26 13:34:07;;;;;;;1.52;0.80;;;19.20;99.90;;;;;;5076430;28;20272;-74
2022/04/26 13:36:37;;;;;;;1.88;0.70;;;19.20;99.90;;;;;;5074504;28;20196;-75
2022/04/26 13:39:10;;;;;;;1.33;0.80;;;19.10;99.90;;;;;;5072109;28;20224;-75
2022/04/26 13:41:41;;;;;;;1.48;0.60;;;19.10;99.90;;;;;;5083767;28;20262;-75
2022/04/26 13:44:11;;;;;;;2.25;0.82;;;19.00;99.90;;;;;;5092612;28;20252;-75
2022/04/26 13:46:43;;;;;;;2.25;0.90;;;19.00;99.90;;;;;;5092353;28;20240;-74
2022/04/26 13:49:13;;;;;;;1.20;0.70;;;19.00;99.90;;;;;;5089408;28;20282;-74
2022/04/26 13:51:44;;;;;;;0.90;0.70;;;19.00;99.90;;;;;;5091366;28;20287;-75
2022/04/26 13:54:17;;;;;;;1.98;0.98;;;19.00;99.90;;;;;;5082030;28;20206;-75
2022/04/26 13:56:49;;;;;;;2.30;1.00;;;19.00;99.90;;;;;;5092475;28;20199;-75
2022/04/26 13:59:20;;;;;;;1.75;1.00;;;19.00;99.90;;;;;;5092156;28;20292;-75
2022/04/26 14:01:50;;;;;;;2.35;0.80;;;19.00;99.90;;;;;;5091886;28;20230;-74
2022/04/26 14:04:21;;;;;;;1.45;0.90;;;19.00;99.90;;;;;;5092368;28;20275;-74
2022/04/26 14:06:52;;;;;;;2.03;0.98;;;19.00;99.90;;;;;;5078053;28;20337;-75
2022/04/26 14:09:25;;;;;;;2.90;1.20;;;19.00;99.90;;;;;;5077033;28;20665;-75
2022/04/26 14:11:55;;;;;;;1.80;1.02;;;19.00;99.90;;;;;;5102934;28;20210;-75
2022/04/26 14:22:47;;;;;;;4.72;1.45;;;19.00;99.90;;;;;;5105681;28;20234;-75
2022/04/26 14:25:19;;;;;;;1.88;1.15;;;19.00;99.90;;;;;;5083320;28;20212;-75
2022/04/26 14:27:51;;;;;;;2.53;1.38;;;19.00;99.90;;;;;;5088461;28;20238;-75
2022/04/26 14:30:21;;;;;;;2.42;1.17;;;18.90;99.90;;;;;;5084907;28;20195;-74
2022/04/26 14:32:54;;;;;;;3.15;1.20;;;19.00;99.90;;;;;;5071251;28;20208;-74
2022/04/26 14:35:25;;;;;;;3.95;1.40;;;19.00;99.90;;;;;;5071542;28;20571;-74
2022/04/26 14:37:56;;;;;;;3.42;1.38;;;18.90;99.90;;;;;;5071443;28;20196;-74
2022/04/26 14:40:28;;;;;;;2.25;1.27;;;18.90;99.90;;;;;;5072132;28;20211;-75
2022/04/26 14:42:59;;;;;;;3.65;1.30;;;18.80;99.90;;;;;;5073882;28;20709;-75
2022/04/26 14:45:32;;;;;;;2.70;1.40;;;18.80;99.90;;;;;;5090518;28;20719;-74
2022/04/26 14:48:03;;;;;;;2.15;1.40;;;18.80;99.90;;;;;;5086767;28;20204;-74
2022/04/26 14:50:33;;;;;;;2.05;1.27;;;18.90;99.90;;;;;;5071153;28;20196;-75
2022/04/26 14:53:04;;;;;;;2.65;1.40;;;18.90;99.90;;;;;;5082288;28;20226;-74
2022/04/26 14:55:37;;;;;;;3.08;1.55;;;19.00;99.90;;;;;;5091461;28;20707;-74
2022/04/26 14:58:09;;;;;;;4.13;1.42;;;18.90;99.90;;;;;;5090475;28;20260;-74
2022/04/26 15:00:40;;;;;;;3.15;1.58;;;18.90;99.90;;;;;;5082670;28;20220;-75
2022/04/26 15:03:11;;;;;;;3.45;1.60;;;18.90;99.90;;;;;;5090816;28;20260;-74
2022/04/26 15:05:41;;;;;;;2.92;1.50;;;18.90;99.90;;;;;;5091025;28;20592;-74
2022/04/26 15:11:00;;;;;;;4.32;1.75;;;18.80;99.90;;;;;;5093629;28;20331;-74
2022/04/26 15:19:04;;;;;;;5.68;1.90;;;18.70;99.90;;;;;;5072052;28;20730;-75
2022/04/26 15:21:34;;;;;;;5.72;1.80;;;18.70;99.90;;;;;;5070411;28;20212;-75
2022/04/26 15:24:05;;;;;;;6.03;1.90;;;18.70;99.90;;;;;;5070250;28;20262;-75
2022/04/26 15:26:38;;;;;;;4.13;1.80;;;18.60;99.90;;;;;;5089159;28;20216;-75
2022/04/26 15:29:09;;;;;;;3.90;2.00;;;18.60;99.90;;;;;;5090670;28;20225;-75
2022/04/26 15:31:41;;;;;;;3.40;2.08;;;18.60;99.90;;;;;;5083214;28;20251;-75
2022/04/26 15:34:12;;;;;;;5.75;2.35;;;18.70;99.90;;;;;;5073820;28;20195;-78
2022/04/26 15:36:43;;;;;;;3.10;1.92;;;18.60;99.90;;;;;;5089755;28;20244;-78
2022/04/26 15:39:14;;;;;;;4.63;2.20;;;18.60;99.90;;;;;;5090568;28;20199;-78
2022/04/26 15:41:47;;;;;;;4.22;2.00;;;18.60;99.90;;;;;;5090222;28;20219;-78
2022/04/26 15:44:18;;;;;;;2.83;1.95;;;18.60;99.90;;;;;;5090207;28;20191;-78
2022/04/26 15:46:52;;;;;;;2.97;1.90;;;18.60;99.90;;;;;;5090405;28;20747;-76
2022/04/26 15:49:23;;;;;;;4.78;2.30;;;18.60;99.90;;;;;;5079868;28;20192;-76
2022/04/26 15:51:56;;;;;;;3.40;1.92;;;18.70;99.90;;;;;;5081971;28;20618;-76
2022/04/26 15:54:27;;;;;;;5.65;2.05;;;18.70;99.90;;;;;;5090659;28;20199;-76
2022/04/26 15:56:59;;;;;;;4.38;2.17;;;18.70;99.90;;;;;;5072697;28;20208;-76
2022/04/26 15:59:30;;;;;;;4.57;2.08;;;18.70;99.90;;;;;;5069456;28;20364;-76
2022/04/26 16:02:00;;;;;;;4.20;1.88;;;18.70;99.90;;;;;;5069740;28;20319;-76
2022/04/26 16:04:31;;;;;;;3.22;2.20;;;18.70;99.90;;;;;;5069597;28;20608;-76
2022/04/26 16:07:02;;;;;;;4.57;2.13;;;18.70;99.90;;;;;;5083540;28;20214;-77
2022/04/26 16:20:40;;;;;;;5.45;2.38;;;18.60;99.90;;;;;;5074683;28;20333;-76
2022/04/26 16:23:11;;;;;;;3.40;2.42;;;18.60;99.90;;;;;;5088310;28;20227;-76
2022/04/26 16:25:42;;;;;;;3.55;2.13;;;18.60;99.90;;;;;;5076220;28;20198;-76
2022/04/26 16:28:14;;;;;;;5.10;2.42;;;18.60;99.90;;;;;;5089667;28;20276;-76
2022/04/26 16:30:45;;;;;;;7.00;2.70;;;18.60;99.90;;;;;;5074232;28;20282;-78
2022/04/26 16:33:16;;;;;;;6.22;3.10;;;18.60;99.90;;;;;;5089758;28;20203;-79
2022/04/26 16:35:49;;;;;;;4.07;2.70;;;18.60;99.90;;;;;;5088602;28;20653;-78
2022/04/26 16:38:19;;;;;;;6.03;2.45;;;18.60;99.90;;;;;;5069986;28;20222;-78
2022/04/26 16:40:51;;;;;;;4.55;2.47;;;18.60;99.90;;;;;;5079090;28;20541;-78
2022/04/26 16:43:23;;;;;;;5.65;2.38;;;18.60;99.90;;;;;;5071938;28;20349;-78
2022/04/26 16:45:54;;;;;;;4.90;2.60;;;18.60;99.90;;;;;;5074978;28;20232;-78
2022/04/26 16:48:26;;;;;;;5.07;2.40;;;18.60;99.90;;;;;;5090439;28;20255;-75
2022/04/26 16:50:57;;;;;;;4.63;2.33;;;18.50;99.90;;;;;;5086080;28;20252;-75
2022/04/26 16:53:28;;;;;;;5.07;2.30;;;18.60;99.90;;;;;;5070325;28;20573;-75
2022/04/26 16:55:58;;;;;;;4.18;2.30;;;18.60;99.90;;;;;;5089344;28;20255;-75
2022/04/26 16:58:31;;;;;;;3.83;2.30;;;18.60;99.90;;;;;;5076731;28;20640;-75
2022/04/26 17:01:02;;;;;;;4.15;2.50;;;18.60;99.90;;;;;;5080557;28;20188;-75
2022/04/26 17:03:32;;;;;;;4.65;2.42;;;18.60;99.90;;;;;;5066976;28;20790;-75
2022/04/26 17:06:04;;;;;;;3.83;2.08;;;18.60;99.90;;;;;;5063154;28;20207;-75
2022/04/26 17:08:34;;;;;;;3.38;1.85;;;18.60;99.90;;;;;;5062653;28;20196;-75
2022/04/26 17:13:53;;;;;;;3.30;2.00;;;18.60;99.90;;;;;;5060632;28;20330;-74
2022/04/26 17:16:24;;;;;;;4.25;2.10;;;18.60;99.90;;;;;;5064642;28;20195;-75
2022/04/26 17:18:55;;;;;;;3.30;1.90;;;18.60;99.90;;;;;;5060723;28;20204;-75
2022/04/26 17:21:26;;;;;;;3.70;2.17;;;18.60;99.90;;;;;;5061178;28;20191;-75
2022/04/26 17:23:57;;;;;;;2.55;1.70;;;18.60;99.90;;;;;;5061733;28;20220;-75
2022/04/26 17:26:27;;;;;;;4.10;2.35;;;18.60;99.90;;;;;;5061808;28;20225;-75
2022/04/26 17:29:00;;;;;;;3.60;1.77;;;18.60;99.90;;;;;;5063972;28;20715;-76
2022/04/26 17:31:31;;;;;;;4.38;1.90;;;18.60;99.90;;;;;;5063390;28;20254;-75
2022/04/26 17:34:01;;;;;;;3.00;1.92;;;18.50;99.90;;;;;;5062565;28;20232;-75
2022/04/26 17:36:32;;;;;;;2.95;1.98;;;18.50;99.90;;;;;;5065110;28;20655;-76
2022/04/26 17:39:03;;;;;;;3.58;1.80;;;18.50;99.90;;;;;;5062134;28;20203;-75
2022/04/26 17:41:34;;;;;;;5.85;2.33;;;18.60;99.90;;;;;;5060160;28;20226;-75
2022/04/26 17:44:07;;;;;;;2.97;1.85;;;18.50;99.90;;;;;;5061096;28;20614;-75
2022/04/26 17:46:38;;;;;;;4.13;2.10;;;18.50;99.90;;;;;;5060197;28;20672;-75